LRSV/SCV METAR and TAF weather

Enter ICAO airport designator
Station Type Date Time Source
LRSV METAR 2019/05/19 20:00 UTC NOAA

LRSV 192000Z 14006KT CAVOK 19/17 Q1009


Station Type Date Time Source
LRSV Decoded METAR 2019/05/19 20:00 UTC NOAA

Suceava / Salcea, Romania (LRSV) 47-39N 026-15E 351M
May 19, 2019 - 04:00 PM EDT / 2019.05.19 2000 UTC
Wind: from the SE (140 degrees) at 7 MPH (6 KT):0
Visibility: greater than 7 mile(s):0
Temperature: 66 F (19 C)
Dew Point: 62 F (17 C)
Relative Humidity: 88%
Pressure (altimeter): 29.80 in. Hg (1009 hPa)
ob: LRSV 192000Z 14006KT CAVOK 19/17 Q1009
cycle: 20

Station Type Date Time Source
LRSV TAF 2014/07/19 18:48 UTC NOAA

TAF LRSV 191800Z 1918/2024 CNL

Example: see airport list